SCGF weather

Golfo Azul Airport
Futrono, Los Ríos Region, Chile

Public forecast

Using degrees Celsius for public forecast. Weather courtesy of forecast.io.

Closest aviation weather report (METAR) to Golfo Azul Airport

Report is more than 6 hours old.

Closest report is Cañal Bajo Carlos - Hott Siebert Airport, 45.4 nm (84.1 km) SW. Retrieved 2019/10/23 21:00 UTC (7 hours ago):

SCJO 232100Z VRB02KT CAVOK 20/10 Q1014

Closest aviation forecast (TAF) to Golfo Azul Airport

Forecast is more than 12 hours old.

Closest forecast is Cañal Bajo Carlos - Hott Siebert Airport, 45.4 nm (84.1 km) SW. Retrieved 2019/10/23 12:33 UTC (16 hours ago):

TAF SCJO 231011Z 2312/2324 VRB03KT 9999 BKN025 TN04/2312Z TX19/2318Z BECMG 2314/2316 SCT035 BECMG 2317/2319 29006KT CAVOK